Airfield :
LOGIN :

Register | Disclaimer

   EN    FR    IT 

 










Legend :    VFR   Marginal VFR   IFR   Intensive IFR   Very Intensive IFR
Visi :
Ceiling :
>= 8 km
>= 3000ft
5 to 8 km
1000 to 3000 ft
1500m to 5 km
500 to 1000 ft
800 to 1500m
200 to 500 ft
< 800m
< 200 ft
Symbols :   Thunderstorms  Fog  Heavy snow  Heavy precipitations  Wind > 20 kt
SIGMETs :     Misc.  Thunderstorms  Icing  Turbulence  Mountain Waves  Volcanic Ashes






- Airport Elevation : 325 ft
- IATA code : BES


LFRB - Brest

CURRENT METAR :
  • 152030Z AUTO 19019KT 7000 -RA OVC005/// ///TCU 14/13 Q1005 TEMPO 3000 RADZ OVC004 BECMG 19018G32KT

EXPIRED METARs :
  • 152000Z AUTO 18017KT 9999 -RA OVC006/// ///TCU 14/13 Q1005 TEMPO 3000 RADZ OVC004 BECMG 19018G32KT
  • 151930Z AUTO 18014KT 5000 RA BR BKN006/// OVC012/// ///TCU 13/13 Q1005 TEMPO OVC004 BECMG 19018G32KT
  • 151900Z AUTO 19014KT 7000 -RA SCT011/// BKN019/// BKN033/// ///TCU 13/13 Q1006 TEMPO 3000 RADZ OVC004 BECMG 19018G32KT
  • 151830Z AUTO 20015KT 9999 -RA SCT010/// BKN016/// BKN025/// ///TCU 14/13 Q1006 TEMPO 3000 RADZ OVC004 BECMG 19018G32KT
  • 151800Z AUTO 20014KT 8000 -RA BKN010 OVC015 14/13 Q1007 TEMPO 3000 RADZ OVC004 BECMG 19018G32KT

TAF TAF LFRB
Valid from the 15 at 18:00 until the 17 at 00:00 UTC


151700Z 1518/1624 21012KT 9999 -RA OVC010
BECMG 1518/1520 19018G32KT
BECMG 1602/1604 29007KT
TEMPO 1518/1606 3000 RADZ OVC004
BECMG 1606/1609 NSW BKN020
ATIS : +33 2 98 32 02 71



MET'MAP, your aeronautical weather chart ! - Copyright ORBIFLY December 2007 - Disclaimer

ORBIFLY MET'MAP TEAM :

Programming & Development : Alexandra Zaïnal
Concept & Development : Baudouin d'Aumeries
Co-Development & Prog : Marc-Olivier Méhu
Technical & hardware support : Manuel Goepfert

Contact : metmap@orbifly.com




SOURCES & CREDITS :

   NOAA